sensor_id;sensor_type;location;lat;lon;timestamp;P1;durP1;ratioP1;P2;durP2;ratioP2
1122;SDS011;548;48.778;9.252;2023-04-24T03:55:41;14.10;;;13.50;;
1122;SDS011;548;48.778;9.252;2023-04-24T03:58:08;16.00;;;15.50;;
1122;SDS011;548;48.778;9.252;2023-04-24T04:00:36;15.13;;;14.53;;
1122;SDS011;548;48.778;9.252;2023-04-24T04:03:02;12.37;;;11.97;;
1122;SDS011;548;48.778;9.252;2023-04-24T04:05:29;12.37;;;11.97;;
1122;SDS011;548;48.778;9.252;2023-04-24T04:07:56;14.00;;;13.47;;
1122;SDS011;548;48.778;9.252;2023-04-24T04:10:22;13.97;;;13.37;;
1122;SDS011;548;48.778;9.252;2023-04-24T04:12:50;15.50;;;14.80;;
1122;SDS011;548;48.778;9.252;2023-04-24T04:15:17;14.43;;;13.93;;
1122;SDS011;548;48.778;9.252;2023-04-24T04:17:44;13.83;;;13.33;;
1122;SDS011;548;48.778;9.252;2023-04-24T04:20:11;15.80;;;15.00;;
1122;SDS011;548;48.778;9.252;2023-04-24T04:22:38;14.67;;;14.00;;
1122;SDS011;548;48.778;9.252;2023-04-24T04:25:05;15.37;;;14.77;;
1122;SDS011;548;48.778;9.252;2023-04-24T04:27:33;13.67;;;13.17;;
1122;SDS011;548;48.778;9.252;2023-04-24T04:30:02;15.20;;;14.60;;
1122;SDS011;548;48.778;9.252;2023-04-24T04:32:30;19.90;;;19.00;;
1122;SDS011;548;48.778;9.252;2023-04-24T04:34:58;27.50;;;25.80;;
1122;SDS011;548;48.778;9.252;2023-04-24T04:37:28;30.33;;;28.73;;
1122;SDS011;548;48.778;9.252;2023-04-24T04:39:54;31.90;;;30.30;;
1122;SDS011;548;48.778;9.252;2023-04-24T04:42:22;31.97;;;30.47;;
1122;SDS011;548;48.778;9.252;2023-04-24T04:44:49;32.07;;;30.47;;
1122;SDS011;548;48.778;9.252;2023-04-24T04:47:17;32.53;;;31.03;;
1122;SDS011;548;48.778;9.252;2023-04-24T04:49:46;34.03;;;31.80;;
1122;SDS011;548;48.778;9.252;2023-04-24T04:52:13;31.83;;;30.23;;
1122;SDS011;548;48.778;9.252;2023-04-24T04:54:42;33.10;;;31.50;;
1122;SDS011;548;48.778;9.252;2023-04-24T04:57:08;33.53;;;32.03;;
1122;SDS011;548;48.778;9.252;2023-04-24T04:59:36;33.70;;;32.20;;
1122;SDS011;548;48.778;9.252;2023-04-24T05:02:02;33.47;;;31.70;;
1122;SDS011;548;48.778;9.252;2023-04-24T05:04:31;33.63;;;32.03;;
1122;SDS011;548;48.778;9.252;2023-04-24T05:06:57;31.03;;;29.63;;
1122;SDS011;548;48.778;9.252;2023-04-24T05:09:24;32.70;;;31.00;;
1122;SDS011;548;48.778;9.252;2023-04-24T05:11:52;32.50;;;30.90;;
1122;SDS011;548;48.778;9.252;2023-04-24T05:14:19;32.50;;;31.00;;
1122;SDS011;548;48.778;9.252;2023-04-24T05:16:46;30.77;;;29.37;;
1122;SDS011;548;48.778;9.252;2023-04-24T05:19:12;31.63;;;30.20;;
1122;SDS011;548;48.778;9.252;2023-04-24T05:21:41;30.40;;;28.90;;
1122;SDS011;548;48.778;9.252;2023-04-24T05:24:07;31.07;;;29.50;;
1122;SDS011;548;48.778;9.252;2023-04-24T05:26:34;32.03;;;30.50;;
1122;SDS011;548;48.778;9.252;2023-04-24T05:29:01;29.23;;;27.93;;
1122;SDS011;548;48.778;9.252;2023-04-24T05:31:28;29.20;;;27.70;;
1122;SDS011;548;48.778;9.252;2023-04-24T05:33:54;28.47;;;27.37;;
1122;SDS011;548;48.778;9.252;2023-04-24T05:36:21;26.60;;;25.50;;
1122;SDS011;548;48.778;9.252;2023-04-24T05:38:49;25.43;;;24.43;;
1122;SDS011;548;48.778;9.252;2023-04-24T05:41:16;26.40;;;25.20;;
1122;SDS011;548;48.778;9.252;2023-04-24T05:43:42;24.97;;;23.97;;
1122;SDS011;548;48.778;9.252;2023-04-24T05:46:09;23.80;;;22.80;;
1122;SDS011;548;48.778;9.252;2023-04-24T05:48:37;23.20;;;22.10;;
1122;SDS011;548;48.778;9.252;2023-04-24T05:51:04;20.70;;;19.90;;
1122;SDS011;548;48.778;9.252;2023-04-24T05:53:30;18.80;;;18.00;;
1122;SDS011;548;48.778;9.252;2023-04-24T05:59:22;18.37;;;17.67;;
1122;SDS011;548;48.778;9.252;2023-04-24T06:01:49;17.30;;;16.70;;
1122;SDS011;548;48.778;9.252;2023-04-24T06:04:16;16.93;;;16.33;;
1122;SDS011;548;48.778;9.252;2023-04-24T06:06:42;16.50;;;16.00;;
1122;SDS011;548;48.778;9.252;2023-04-24T06:09:09;14.63;;;14.13;;
1122;SDS011;548;48.778;9.252;2023-04-24T06:11:36;16.17;;;15.67;;
1122;SDS011;548;48.778;9.252;2023-04-24T06:14:03;15.27;;;14.67;;
1122;SDS011;548;48.778;9.252;2023-04-24T06:16:31;14.87;;;14.27;;
1122;SDS011;548;48.778;9.252;2023-04-24T06:18:58;16.40;;;15.80;;
1122;SDS011;548;48.778;9.252;2023-04-24T06:21:25;14.23;;;13.63;;
1122;SDS011;548;48.778;9.252;2023-04-24T06:23:52;12.33;;;11.93;;
1122;SDS011;548;48.778;9.252;2023-04-24T06:26:21;12.17;;;11.77;;
1122;SDS011;548;48.778;9.252;2023-04-24T06:28:49;11.87;;;11.43;;
1122;SDS011;548;48.778;9.252;2023-04-24T06:31:16;11.47;;;10.93;;
1122;SDS011;548;48.778;9.252;2023-04-24T06:33:44;13.13;;;12.63;;
1122;SDS011;548;48.778;9.252;2023-04-24T06:36:11;12.97;;;12.47;;
1122;SDS011;548;48.778;9.252;2023-04-24T06:38:38;12.07;;;11.57;;
1122;SDS011;548;48.778;9.252;2023-04-24T06:41:05;13.43;;;12.93;;
1122;SDS011;548;48.778;9.252;2023-04-24T06:43:31;13.63;;;13.00;;
1122;SDS011;548;48.778;9.252;2023-04-24T06:45:59;13.77;;;13.00;;
1122;SDS011;548;48.778;9.252;2023-04-24T06:48:28;13.30;;;12.70;;
1122;SDS011;548;48.778;9.252;2023-04-24T06:50:56;12.40;;;11.93;;
1122;SDS011;548;48.778;9.252;2023-04-24T06:53:23;14.17;;;13.00;;
1122;SDS011;548;48.778;9.252;2023-04-24T06:55:50;13.07;;;12.57;;
1122;SDS011;548;48.778;9.252;2023-04-24T06:58:17;12.33;;;11.83;;
1122;SDS011;548;48.778;9.252;2023-04-24T07:00:44;13.10;;;12.50;;
1122;SDS011;548;48.778;9.252;2023-04-24T07:03:10;13.13;;;12.63;;
1122;SDS011;548;48.778;9.252;2023-04-24T07:05:37;13.50;;;12.97;;
1122;SDS011;548;48.778;9.252;2023-04-24T07:08:05;12.17;;;11.77;;
1122;SDS011;548;48.778;9.252;2023-04-24T07:10:33;12.00;;;11.60;;
1122;SDS011;548;48.778;9.252;2023-04-24T07:13:00;13.10;;;12.50;;
1122;SDS011;548;48.778;9.252;2023-04-24T07:15:27;11.97;;;11.57;;
1122;SDS011;548;48.778;9.252;2023-04-24T07:17:54;13.30;;;12.70;;
1122;SDS011;548;48.778;9.252;2023-04-24T07:20:20;12.57;;;12.07;;
1122;SDS011;548;48.778;9.252;2023-04-24T07:22:47;11.60;;;11.20;;
1122;SDS011;548;48.778;9.252;2023-04-24T07:25:15;12.20;;;11.70;;
1122;SDS011;548;48.778;9.252;2023-04-24T07:27:42;13.10;;;12.50;;
1122;SDS011;548;48.778;9.252;2023-04-24T07:30:09;12.40;;;11.90;;
1122;SDS011;548;48.778;9.252;2023-04-24T07:32:37;12.67;;;12.20;;
1122;SDS011;548;48.778;9.252;2023-04-24T07:35:03;12.80;;;12.23;;
1122;SDS011;548;48.778;9.252;2023-04-24T07:37:31;11.90;;;11.50;;
1122;SDS011;548;48.778;9.252;2023-04-24T07:39:57;12.30;;;11.60;;
1122;SDS011;548;48.778;9.252;2023-04-24T07:42:26;11.80;;;11.30;;
1122;SDS011;548;48.778;9.252;2023-04-24T07:44:52;11.00;;;10.70;;
1122;SDS011;548;48.778;9.252;2023-04-24T07:47:19;12.27;;;11.77;;
1122;SDS011;548;48.778;9.252;2023-04-24T07:49:45;11.50;;;11.10;;
1122;SDS011;548;48.778;9.252;2023-04-24T07:52:12;11.80;;;11.20;;
1122;SDS011;548;48.778;9.252;2023-04-24T07:54:39;12.83;;;11.70;;
1122;SDS011;548;48.778;9.252;2023-04-24T07:57:05;11.23;;;10.83;;
1122;SDS011;548;48.778;9.252;2023-04-24T07:59:34;11.80;;;11.40;;
1122;SDS011;548;48.778;9.252;2023-04-24T08:02:01;11.80;;;11.30;;
1122;SDS011;548;48.778;9.252;2023-04-24T08:04:27;11.67;;;10.97;;
1122;SDS011;548;48.778;9.252;2023-04-24T08:06:54;10.60;;;10.10;;
1122;SDS011;548;48.778;9.252;2023-04-24T08:09:21;11.07;;;10.67;;
1122;SDS011;548;48.778;9.252;2023-04-24T08:11:47;11.07;;;10.67;;
1122;SDS011;548;48.778;9.252;2023-04-24T08:14:14;11.57;;;11.17;;
1122;SDS011;548;48.778;9.252;2023-04-24T08:16:42;11.70;;;11.20;;
1122;SDS011;548;48.778;9.252;2023-04-24T08:19:09;11.23;;;10.63;;
1122;SDS011;548;48.778;9.252;2023-04-24T08:21:36;11.77;;;11.07;;
1122;SDS011;548;48.778;9.252;2023-04-24T08:24:03;11.17;;;10.57;;
1122;SDS011;548;48.778;9.252;2023-04-24T08:26:32;11.40;;;10.80;;
1122;SDS011;548;48.778;9.252;2023-04-24T08:29:00;11.37;;;10.63;;
1122;SDS011;548;48.778;9.252;2023-04-24T08:31:27;11.00;;;10.60;;
1122;SDS011;548;48.778;9.252;2023-04-24T08:33:55;10.70;;;10.30;;
1122;SDS011;548;48.778;9.252;2023-04-24T08:36:22;10.63;;;10.33;;
1122;SDS011;548;48.778;9.252;2023-04-24T08:38:48;10.63;;;10.23;;
1122;SDS011;548;48.778;9.252;2023-04-24T08:41:15;10.33;;;9.97;;
1122;SDS011;548;48.778;9.252;2023-04-24T08:43:44;11.43;;;11.03;;
1122;SDS011;548;48.778;9.252;2023-04-24T08:46:13;12.80;;;12.07;;
1122;SDS011;548;48.778;9.252;2023-04-24T08:48:41;12.23;;;11.63;;
1122;SDS011;548;48.778;9.252;2023-04-24T08:51:09;11.17;;;10.67;;
1122;SDS011;548;48.778;9.252;2023-04-24T08:53:36;11.30;;;10.70;;
1122;SDS011;548;48.778;9.252;2023-04-24T08:59:09;11.57;;;11.10;;
1122;SDS011;548;48.778;9.252;2023-04-24T09:01:41;12.13;;;11.73;;
1122;SDS011;548;48.778;9.252;2023-04-24T09:04:13;10.97;;;10.37;;
1122;SDS011;548;48.778;9.252;2023-04-24T09:11:19;11.17;;;10.77;;
1122;SDS011;548;48.778;9.252;2023-04-24T09:13:10;12.67;;;12.07;;
1122;SDS011;548;48.778;9.252;2023-04-24T09:15:37;10.80;;;10.40;;
1122;SDS011;548;48.778;9.252;2023-04-24T09:18:05;12.13;;;11.53;;
1122;SDS011;548;48.778;9.252;2023-04-24T09:20:33;12.07;;;11.57;;
1122;SDS011;548;48.778;9.252;2023-04-24T09:23:05;11.63;;;10.90;;
1122;SDS011;548;48.778;9.252;2023-04-24T09:29:03;11.47;;;11.07;;
1122;SDS011;548;48.778;9.252;2023-04-24T09:31:35;11.30;;;10.90;;
1122;SDS011;548;48.778;9.252;2023-04-24T09:34:05;11.43;;;10.90;;
1122;SDS011;548;48.778;9.252;2023-04-24T09:36:39;11.63;;;11.23;;
1122;SDS011;548;48.778;9.252;2023-04-24T09:42:45;10.77;;;10.27;;
1122;SDS011;548;48.778;9.252;2023-04-24T09:45:17;12.20;;;11.80;;
1122;SDS011;548;48.778;9.252;2023-04-24T09:47:44;11.23;;;10.73;;
1122;SDS011;548;48.778;9.252;2023-04-24T09:50:14;11.90;;;11.30;;
1122;SDS011;548;48.778;9.252;2023-04-24T09:52:43;10.33;;;10.03;;
1122;SDS011;548;48.778;9.252;2023-04-24T09:55:10;10.70;;;10.30;;
1122;SDS011;548;48.778;9.252;2023-04-24T09:57:47;11.17;;;10.77;;
1122;SDS011;548;48.778;9.252;2023-04-24T10:00:35;10.80;;;10.40;;
1122;SDS011;548;48.778;9.252;2023-04-24T10:03:03;11.00;;;10.50;;
1122;SDS011;548;48.778;9.252;2023-04-24T10:05:32;12.10;;;11.57;;
1122;SDS011;548;48.778;9.252;2023-04-24T10:08:00;12.00;;;11.50;;
1122;SDS011;548;48.778;9.252;2023-04-24T10:10:29;10.87;;;10.47;;
1122;SDS011;548;48.778;9.252;2023-04-24T10:12:57;9.90;;;9.60;;
1122;SDS011;548;48.778;9.252;2023-04-24T10:15:25;10.60;;;10.20;;
1122;SDS011;548;48.778;9.252;2023-04-24T10:17:53;11.03;;;10.53;;
1122;SDS011;548;48.778;9.252;2023-04-24T10:20:20;11.10;;;10.47;;
1122;SDS011;548;48.778;9.252;2023-04-24T10:22:48;11.20;;;10.70;;
1122;SDS011;548;48.778;9.252;2023-04-24T10:25:16;10.10;;;9.80;;
1122;SDS011;548;48.778;9.252;2023-04-24T10:27:44;11.20;;;10.80;;
1122;SDS011;548;48.778;9.252;2023-04-24T10:30:14;10.53;;;10.23;;
1122;SDS011;548;48.778;9.252;2023-04-24T10:32:41;11.50;;;11.10;;
1122;SDS011;548;48.778;9.252;2023-04-24T10:35:08;12.43;;;12.03;;
1122;SDS011;548;48.778;9.252;2023-04-24T10:37:36;12.73;;;12.23;;
1122;SDS011;548;48.778;9.252;2023-04-24T10:40:05;11.50;;;11.10;;
1122;SDS011;548;48.778;9.252;2023-04-24T10:42:33;11.30;;;10.80;;
1122;SDS011;548;48.778;9.252;2023-04-24T10:45:04;11.50;;;11.10;;
1122;SDS011;548;48.778;9.252;2023-04-24T10:47:40;11.90;;;11.40;;
1122;SDS011;548;48.778;9.252;2023-04-24T10:50:07;11.23;;;10.93;;
1122;SDS011;548;48.778;9.252;2023-04-24T10:52:44;12.20;;;11.70;;
1122;SDS011;548;48.778;9.252;2023-04-24T10:55:12;11.30;;;10.80;;
1122;SDS011;548;48.778;9.252;2023-04-24T10:57:39;10.60;;;10.30;;
1122;SDS011;548;48.778;9.252;2023-04-24T11:00:30;10.83;;;10.23;;
1122;SDS011;548;48.778;9.252;2023-04-24T11:02:58;10.83;;;10.43;;
1122;SDS011;548;48.778;9.252;2023-04-24T11:08:21;12.30;;;11.90;;
1122;SDS011;548;48.778;9.252;2023-04-24T11:10:57;11.83;;;11.23;;
1122;SDS011;548;48.778;9.252;2023-04-24T11:13:25;11.63;;;11.23;;
1122;SDS011;548;48.778;9.252;2023-04-24T11:16:12;11.50;;;11.10;;
1122;SDS011;548;48.778;9.252;2023-04-24T11:18:41;10.43;;;10.13;;
1122;SDS011;548;48.778;9.252;2023-04-24T11:21:11;10.87;;;10.47;;
1122;SDS011;548;48.778;9.252;2023-04-24T11:23:38;12.20;;;11.70;;
1122;SDS011;548;48.778;9.252;2023-04-24T11:26:11;10.30;;;10.00;;
1122;SDS011;548;48.778;9.252;2023-04-24T11:28:43;10.73;;;10.13;;
1122;SDS011;548;48.778;9.252;2023-04-24T11:34:06;11.50;;;11.10;;
1122;SDS011;548;48.778;9.252;2023-04-24T11:36:34;10.40;;;10.00;;
1122;SDS011;548;48.778;9.252;2023-04-24T11:39:01;11.20;;;10.80;;
1122;SDS011;548;48.778;9.252;2023-04-24T11:41:28;11.90;;;11.50;;
1122;SDS011;548;48.778;9.252;2023-04-24T11:43:55;12.77;;;12.37;;
1122;SDS011;548;48.778;9.252;2023-04-24T11:46:23;13.03;;;12.53;;
1122;SDS011;548;48.778;9.252;2023-04-24T11:48:53;11.00;;;10.50;;
1122;SDS011;548;48.778;9.252;2023-04-24T11:51:22;10.20;;;9.80;;
1122;SDS011;548;48.778;9.252;2023-04-24T11:53:50;10.63;;;10.10;;
1122;SDS011;548;48.778;9.252;2023-04-24T11:56:17;10.60;;;10.00;;
1122;SDS011;548;48.778;9.252;2023-04-24T11:58:45;12.00;;;10.97;;
1122;SDS011;548;48.778;9.252;2023-04-24T12:01:12;10.50;;;10.10;;
1122;SDS011;548;48.778;9.252;2023-04-24T12:03:38;10.10;;;9.80;;
1122;SDS011;548;48.778;9.252;2023-04-24T12:06:08;11.60;;;11.20;;
1122;SDS011;548;48.778;9.252;2023-04-24T12:08:37;10.70;;;10.30;;
1122;SDS011;548;48.778;9.252;2023-04-24T12:11:04;11.93;;;10.90;;
1122;SDS011;548;48.778;9.252;2023-04-24T12:13:33;10.50;;;9.97;;
1122;SDS011;548;48.778;9.252;2023-04-24T12:16:01;12.17;;;11.17;;
1122;SDS011;548;48.778;9.252;2023-04-24T12:18:29;11.80;;;11.40;;
1122;SDS011;548;48.778;9.252;2023-04-24T12:23:43;11.00;;;10.60;;
1122;SDS011;548;48.778;9.252;2023-04-24T12:26:10;12.53;;;11.93;;
1122;SDS011;548;48.778;9.252;2023-04-24T12:28:37;12.63;;;12.03;;
1122;SDS011;548;48.778;9.252;2023-04-24T12:31:05;10.47;;;10.10;;
1122;SDS011;548;48.778;9.252;2023-04-24T12:33:33;11.40;;;11.00;;
1122;SDS011;548;48.778;9.252;2023-04-24T12:36:00;11.47;;;10.87;;
1122;SDS011;548;48.778;9.252;2023-04-24T12:38:28;12.40;;;11.80;;
1122;SDS011;548;48.778;9.252;2023-04-24T12:41:03;10.47;;;10.07;;
1122;SDS011;548;48.778;9.252;2023-04-24T12:43:30;10.80;;;10.40;;
1122;SDS011;548;48.778;9.252;2023-04-24T12:45:57;11.50;;;11.10;;
1122;SDS011;548;48.778;9.252;2023-04-24T12:48:24;11.43;;;11.03;;
1122;SDS011;548;48.778;9.252;2023-04-24T12:50:51;9.70;;;9.40;;
1122;SDS011;548;48.778;9.252;2023-04-24T12:53:18;9.80;;;9.50;;
1122;SDS011;548;48.778;9.252;2023-04-24T12:55:45;11.73;;;11.23;;
1122;SDS011;548;48.778;9.252;2023-04-24T12:58:18;11.00;;;10.70;;
1122;SDS011;548;48.778;9.252;2023-04-24T13:00:46;10.63;;;10.13;;
1122;SDS011;548;48.778;9.252;2023-04-24T13:03:12;10.60;;;10.20;;
1122;SDS011;548;48.778;9.252;2023-04-24T13:05:39;10.50;;;10.07;;
1122;SDS011;548;48.778;9.252;2023-04-24T13:08:06;9.73;;;9.43;;
1122;SDS011;548;48.778;9.252;2023-04-24T13:10:33;10.37;;;9.97;;
1122;SDS011;548;48.778;9.252;2023-04-24T13:13:00;12.20;;;11.80;;
1122;SDS011;548;48.778;9.252;2023-04-24T13:15:28;16.20;;;15.50;;
1122;SDS011;548;48.778;9.252;2023-04-24T13:17:55;30.50;;;29.00;;
1122;SDS011;548;48.778;9.252;2023-04-24T13:20:22;33.70;;;32.20;;
1122;SDS011;548;48.778;9.252;2023-04-24T13:22:48;30.70;;;29.50;;
1122;SDS011;548;48.778;9.252;2023-04-24T13:25:15;29.00;;;27.80;;
1122;SDS011;548;48.778;9.252;2023-04-24T13:27:42;25.77;;;24.77;;
1122;SDS011;548;48.778;9.252;2023-04-24T13:30:10;18.20;;;17.57;;
1122;SDS011;548;48.778;9.252;2023-04-24T13:32:38;15.00;;;14.50;;
1122;SDS011;548;48.778;9.252;2023-04-24T13:35:05;13.80;;;13.30;;
1122;SDS011;548;48.778;9.252;2023-04-24T13:37:32;14.50;;;14.00;;
1122;SDS011;548;48.778;9.252;2023-04-24T13:39:59;13.60;;;13.10;;
1122;SDS011;548;48.778;9.252;2023-04-24T13:42:25;13.37;;;12.97;;
1122;SDS011;548;48.778;9.252;2023-04-24T13:45:01;12.83;;;12.43;;
1122;SDS011;548;48.778;9.252;2023-04-24T13:47:29;11.20;;;10.80;;
1122;SDS011;548;48.778;9.252;2023-04-24T13:49:57;11.27;;;10.87;;
1122;SDS011;548;48.778;9.252;2023-04-24T13:52:24;12.80;;;12.00;;
1122;SDS011;548;48.778;9.252;2023-04-24T13:54:50;11.60;;;11.20;;
1122;SDS011;548;48.778;9.252;2023-04-24T13:57:17;17.10;;;16.50;;
1122;SDS011;548;48.778;9.252;2023-04-24T13:59:44;21.30;;;20.50;;
1122;SDS011;548;48.778;9.252;2023-04-24T14:02:11;24.80;;;23.80;;
1122;SDS011;548;48.778;9.252;2023-04-24T14:04:38;30.43;;;28.70;;
1122;SDS011;548;48.778;9.252;2023-04-24T14:07:06;30.77;;;29.47;;
1122;SDS011;548;48.778;9.252;2023-04-24T14:09:33;31.90;;;30.50;;
1122;SDS011;548;48.778;9.252;2023-04-24T14:12:00;30.93;;;29.53;;
1122;SDS011;548;48.778;9.252;2023-04-24T14:14:28;30.00;;;28.70;;
1122;SDS011;548;48.778;9.252;2023-04-24T14:16:55;29.07;;;27.87;;
1122;SDS011;548;48.778;9.252;2023-04-24T14:19:21;23.73;;;22.83;;
1122;SDS011;548;48.778;9.252;2023-04-24T14:21:48;19.00;;;18.40;;
1122;SDS011;548;48.778;9.252;2023-04-24T14:24:16;16.40;;;15.80;;
1122;SDS011;548;48.778;9.252;2023-04-24T14:26:43;16.50;;;15.90;;
1122;SDS011;548;48.778;9.252;2023-04-24T14:29:10;14.10;;;13.60;;
1122;SDS011;548;48.778;9.252;2023-04-24T14:31:36;14.57;;;13.97;;
1122;SDS011;548;48.778;9.252;2023-04-24T14:34:03;12.60;;;12.00;;
1122;SDS011;548;48.778;9.252;2023-04-24T14:36:30;14.60;;;13.87;;
1122;SDS011;548;48.778;9.252;2023-04-24T14:38:57;13.77;;;13.27;;
1122;SDS011;548;48.778;9.252;2023-04-24T14:41:25;12.40;;;11.93;;
1122;SDS011;548;48.778;9.252;2023-04-24T14:43:52;11.73;;;11.33;;
1122;SDS011;548;48.778;9.252;2023-04-24T14:46:19;10.90;;;10.43;;
1122;SDS011;548;48.778;9.252;2023-04-24T14:48:46;12.03;;;11.63;;
1122;SDS011;548;48.778;9.252;2023-04-24T14:51:12;12.63;;;12.13;;
1122;SDS011;548;48.778;9.252;2023-04-24T14:53:39;13.43;;;12.93;;
1122;SDS011;548;48.778;9.252;2023-04-24T15:04:46;10.23;;;9.83;;
1122;SDS011;548;48.778;9.252;2023-04-24T15:07:13;12.20;;;11.70;;
1122;SDS011;548;48.778;9.252;2023-04-24T15:09:40;10.90;;;10.50;;
1122;SDS011;548;48.778;9.252;2023-04-24T15:12:07;9.70;;;9.40;;
1122;SDS011;548;48.778;9.252;2023-04-24T15:30:14;11.53;;;11.10;;
1122;SDS011;548;48.778;9.252;2023-04-24T15:32:46;11.00;;;10.60;;
1122;SDS011;548;48.778;9.252;2023-04-24T15:35:19;11.63;;;11.23;;
1122;SDS011;548;48.778;9.252;2023-04-24T15:37:46;11.00;;;10.50;;
1122;SDS011;548;48.778;9.252;2023-04-24T15:40:13;10.70;;;10.30;;
1122;SDS011;548;48.778;9.252;2023-04-24T15:42:41;10.83;;;10.43;;
1122;SDS011;548;48.778;9.252;2023-04-24T15:48:26;21.47;;;20.10;;
1122;SDS011;548;48.778;9.252;2023-04-24T15:50:53;32.40;;;31.00;;
1122;SDS011;548;48.778;9.252;2023-04-24T15:53:20;33.40;;;31.90;;
1122;SDS011;548;48.778;9.252;2023-04-24T15:55:46;32.37;;;30.87;;
1122;SDS011;548;48.778;9.252;2023-04-24T15:58:13;33.20;;;31.80;;
1122;SDS011;548;48.778;9.252;2023-04-24T16:00:40;32.50;;;31.00;;
1122;SDS011;548;48.778;9.252;2023-04-24T16:03:07;28.70;;;27.57;;
1122;SDS011;548;48.778;9.252;2023-04-24T16:05:35;28.87;;;27.67;;
1122;SDS011;548;48.778;9.252;2023-04-24T16:08:01;26.47;;;25.47;;
1122;SDS011;548;48.778;9.252;2023-04-24T16:10:28;24.13;;;23.10;;
1122;SDS011;548;48.778;9.252;2023-04-24T16:12:55;19.27;;;18.57;;
1122;SDS011;548;48.778;9.252;2023-04-24T16:15:22;16.67;;;16.00;;
1122;SDS011;548;48.778;9.252;2023-04-24T16:17:49;15.93;;;15.40;;
1122;SDS011;548;48.778;9.252;2023-04-24T16:20:16;13.73;;;13.23;;
1122;SDS011;548;48.778;9.252;2023-04-24T16:22:44;13.70;;;13.20;;
1122;SDS011;548;48.778;9.252;2023-04-24T16:25:10;15.60;;;14.80;;
1122;SDS011;548;48.778;9.252;2023-04-24T16:27:37;15.30;;;14.60;;
1122;SDS011;548;48.778;9.252;2023-04-24T16:30:04;16.37;;;15.70;;
1122;SDS011;548;48.778;9.252;2023-04-24T16:32:32;13.83;;;13.33;;
1122;SDS011;548;48.778;9.252;2023-04-24T16:34:59;12.97;;;12.47;;
1122;SDS011;548;48.778;9.252;2023-04-24T16:37:27;14.00;;;13.50;;
1122;SDS011;548;48.778;9.252;2023-04-24T16:39:55;14.27;;;13.77;;
1122;SDS011;548;48.778;9.252;2023-04-24T16:42:22;13.00;;;12.50;;
1122;SDS011;548;48.778;9.252;2023-04-24T16:44:48;12.67;;;12.17;;
1122;SDS011;548;48.778;9.252;2023-04-24T16:47:15;11.47;;;11.07;;
1122;SDS011;548;48.778;9.252;2023-04-24T16:49:42;14.87;;;14.17;;
1122;SDS011;548;48.778;9.252;2023-04-24T16:52:10;13.23;;;12.73;;
1122;SDS011;548;48.778;9.252;2023-04-24T16:54:37;12.87;;;12.43;;
1122;SDS011;548;48.778;9.252;2023-04-24T16:57:05;11.77;;;11.37;;
1122;SDS011;548;48.778;9.252;2023-04-24T16:59:32;11.40;;;10.60;;
1122;SDS011;548;48.778;9.252;2023-04-24T17:02:00;12.17;;;11.67;;
1122;SDS011;548;48.778;9.252;2023-04-24T17:04:26;12.83;;;12.30;;
1122;SDS011;548;48.778;9.252;2023-04-24T17:06:53;11.57;;;11.07;;
1122;SDS011;548;48.778;9.252;2023-04-24T17:09:20;12.20;;;11.50;;
1122;SDS011;548;48.778;9.252;2023-04-24T17:11:47;12.70;;;12.20;;
1122;SDS011;548;48.778;9.252;2023-04-24T17:14:16;11.57;;;11.00;;
1122;SDS011;548;48.778;9.252;2023-04-24T17:16:43;11.83;;;11.17;;
1122;SDS011;548;48.778;9.252;2023-04-24T17:19:10;11.50;;;11.00;;
1122;SDS011;548;48.778;9.252;2023-04-24T17:21:37;12.67;;;12.00;;
1122;SDS011;548;48.778;9.252;2023-04-24T17:24:04;12.20;;;11.70;;
1122;SDS011;548;48.778;9.252;2023-04-24T17:26:34;11.33;;;10.93;;
1122;SDS011;548;48.778;9.252;2023-04-24T17:46:53;9.80;;;9.40;;
1122;SDS011;548;48.778;9.252;2023-04-24T17:49:20;10.40;;;9.70;;
1122;SDS011;548;48.778;9.252;2023-04-24T17:51:47;9.80;;;9.40;;
1122;SDS011;548;48.778;9.252;2023-04-24T17:54:14;10.90;;;10.50;;
1122;SDS011;548;48.778;9.252;2023-04-24T17:56:41;11.00;;;10.43;;
1122;SDS011;548;48.778;9.252;2023-04-24T17:59:08;10.27;;;9.80;;
1122;SDS011;548;48.778;9.252;2023-04-24T18:01:36;9.20;;;8.80;;
1122;SDS011;548;48.778;9.252;2023-04-24T18:04:06;9.93;;;9.63;;
1122;SDS011;548;48.778;9.252;2023-04-24T18:06:33;10.50;;;9.90;;
1122;SDS011;548;48.778;9.252;2023-04-24T18:09:00;12.27;;;11.37;;
1122;SDS011;548;48.778;9.252;2023-04-24T18:11:28;11.87;;;11.17;;
1122;SDS011;548;48.778;9.252;2023-04-24T18:13:55;10.70;;;10.20;;
1122;SDS011;548;48.778;9.252;2023-04-24T18:16:22;10.00;;;9.60;;
1122;SDS011;548;48.778;9.252;2023-04-24T18:18:49;9.60;;;9.20;;
1122;SDS011;548;48.778;9.252;2023-04-24T18:21:19;10.87;;;10.47;;
1122;SDS011;548;48.778;9.252;2023-04-24T18:23:45;10.17;;;9.67;;
1122;SDS011;548;48.778;9.252;2023-04-24T18:26:13;9.67;;;9.07;;
1122;SDS011;548;48.778;9.252;2023-04-24T18:28:41;10.43;;;10.03;;
1122;SDS011;548;48.778;9.252;2023-04-24T18:31:08;11.80;;;11.17;;
1122;SDS011;548;48.778;9.252;2023-04-24T18:33:36;11.03;;;10.53;;
1122;SDS011;548;48.778;9.252;2023-04-24T18:36:03;10.30;;;9.90;;
1122;SDS011;548;48.778;9.252;2023-04-24T18:38:31;11.27;;;10.87;;
1122;SDS011;548;48.778;9.252;2023-04-24T18:40:58;11.17;;;10.40;;
1122;SDS011;548;48.778;9.252;2023-04-24T18:43:24;9.87;;;9.57;;
1122;SDS011;548;48.778;9.252;2023-04-24T18:45:51;12.07;;;11.57;;
1122;SDS011;548;48.778;9.252;2023-04-24T18:48:18;11.10;;;10.70;;
1122;SDS011;548;48.778;9.252;2023-04-24T18:50:44;12.50;;;12.00;;
1122;SDS011;548;48.778;9.252;2023-04-24T18:53:11;10.60;;;9.97;;
1122;SDS011;548;48.778;9.252;2023-04-24T18:55:42;11.03;;;10.33;;
1122;SDS011;548;48.778;9.252;2023-04-24T18:58:08;11.57;;;11.07;;
1122;SDS011;548;48.778;9.252;2023-04-24T19:00:35;12.77;;;12.17;;
1122;SDS011;548;48.778;9.252;2023-04-24T19:03:03;10.30;;;10.00;;
1122;SDS011;548;48.778;9.252;2023-04-24T19:05:29;9.10;;;8.60;;
1122;SDS011;548;48.778;9.252;2023-04-24T19:07:56;8.93;;;8.50;;
1122;SDS011;548;48.778;9.252;2023-04-24T19:10:23;11.97;;;11.30;;
1122;SDS011;548;48.778;9.252;2023-04-24T19:12:52;11.10;;;10.57;;
1122;SDS011;548;48.778;9.252;2023-04-24T19:15:21;10.20;;;9.80;;
1122;SDS011;548;48.778;9.252;2023-04-24T19:17:48;10.40;;;9.90;;
1122;SDS011;548;48.778;9.252;2023-04-24T19:20:15;11.70;;;11.10;;
1122;SDS011;548;48.778;9.252;2023-04-24T19:22:42;11.20;;;10.80;;
1122;SDS011;548;48.778;9.252;2023-04-24T19:25:09;10.97;;;10.37;;
1122;SDS011;548;48.778;9.252;2023-04-24T19:27:36;9.93;;;9.50;;
1122;SDS011;548;48.778;9.252;2023-04-24T19:30:05;10.83;;;10.40;;
1122;SDS011;548;48.778;9.252;2023-04-24T19:32:32;11.77;;;11.30;;
1122;SDS011;548;48.778;9.252;2023-04-24T19:34:59;10.63;;;10.17;;
1122;SDS011;548;48.778;9.252;2023-04-24T19:37:25;9.87;;;9.30;;
1122;SDS011;548;48.778;9.252;2023-04-24T19:39:52;9.70;;;9.30;;
1122;SDS011;548;48.778;9.252;2023-04-24T19:42:19;11.57;;;11.07;;
1122;SDS011;548;48.778;9.252;2023-04-24T19:44:45;11.20;;;10.70;;
1122;SDS011;548;48.778;9.252;2023-04-24T19:47:13;12.27;;;10.77;;
1122;SDS011;548;48.778;9.252;2023-04-24T19:49:40;12.87;;;11.97;;
1122;SDS011;548;48.778;9.252;2023-04-24T19:52:07;11.93;;;11.23;;
1122;SDS011;548;48.778;9.252;2023-04-24T19:54:33;11.23;;;10.67;;
1122;SDS011;548;48.778;9.252;2023-04-24T19:57:00;10.77;;;10.27;;
1122;SDS011;548;48.778;9.252;2023-04-24T19:59:27;11.43;;;10.93;;
1122;SDS011;548;48.778;9.252;2023-04-24T20:01:54;11.40;;;10.80;;
1122;SDS011;548;48.778;9.252;2023-04-24T20:04:22;10.00;;;9.60;;
1122;SDS011;548;48.778;9.252;2023-04-24T20:06:49;10.17;;;9.77;;
1122;SDS011;548;48.778;9.252;2023-04-24T20:09:15;10.03;;;9.53;;
1122;SDS011;548;48.778;9.252;2023-04-24T20:11:42;11.17;;;10.67;;